sensor_id;sensor_type;location;lat;lon;timestamp;P1;durP1;ratioP1;P2;durP2;ratioP2
7336;SDS011;54510;42.016;23.098;2022-10-31T00:00:49;13.07;;;6.68;;
7336;SDS011;54510;42.016;23.098;2022-10-31T00:03:15;11.07;;;6.05;;
7336;SDS011;54510;42.016;23.098;2022-10-31T00:05:42;9.38;;;4.47;;
7336;SDS011;54510;42.016;23.098;2022-10-31T00:08:08;8.30;;;4.80;;
7336;SDS011;54510;42.016;23.098;2022-10-31T00:10:36;10.82;;;4.28;;
7336;SDS011;54510;42.016;23.098;2022-10-31T00:13:02;8.80;;;4.05;;
7336;SDS011;54510;42.016;23.098;2022-10-31T00:15:28;9.05;;;3.50;;
7336;SDS011;54510;42.016;23.098;2022-10-31T00:17:53;9.20;;;3.70;;
7336;SDS011;54510;42.016;23.098;2022-10-31T00:20:19;6.30;;;3.47;;
7336;SDS011;54510;42.016;23.098;2022-10-31T00:22:44;8.02;;;3.25;;
7336;SDS011;54510;42.016;23.098;2022-10-31T00:25:09;8.27;;;3.25;;
7336;SDS011;54510;42.016;23.098;2022-10-31T00:27:35;7.78;;;3.08;;
7336;SDS011;54510;42.016;23.098;2022-10-31T00:30:00;9.90;;;3.95;;
7336;SDS011;54510;42.016;23.098;2022-10-31T00:32:28;8.95;;;3.70;;
7336;SDS011;54510;42.016;23.098;2022-10-31T00:34:54;9.35;;;5.10;;
7336;SDS011;54510;42.016;23.098;2022-10-31T00:37:19;6.07;;;3.80;;
7336;SDS011;54510;42.016;23.098;2022-10-31T00:39:45;7.90;;;4.25;;
7336;SDS011;54510;42.016;23.098;2022-10-31T00:42:10;9.02;;;4.53;;
7336;SDS011;54510;42.016;23.098;2022-10-31T00:44:36;10.75;;;4.78;;
7336;SDS011;54510;42.016;23.098;2022-10-31T00:47:01;11.70;;;4.65;;
7336;SDS011;54510;42.016;23.098;2022-10-31T00:49:26;8.60;;;4.82;;
7336;SDS011;54510;42.016;23.098;2022-10-31T00:51:52;8.63;;;5.10;;
7336;SDS011;54510;42.016;23.098;2022-10-31T00:54:17;8.65;;;3.95;;
7336;SDS011;54510;42.016;23.098;2022-10-31T00:56:43;8.45;;;4.40;;
7336;SDS011;54510;42.016;23.098;2022-10-31T00:59:08;8.10;;;3.35;;
7336;SDS011;54510;42.016;23.098;2022-10-31T01:01:33;8.07;;;3.80;;
7336;SDS011;54510;42.016;23.098;2022-10-31T01:03:59;12.32;;;3.58;;
7336;SDS011;54510;42.016;23.098;2022-10-31T01:06:24;10.27;;;3.55;;
7336;SDS011;54510;42.016;23.098;2022-10-31T01:08:49;6.63;;;2.92;;
7336;SDS011;54510;42.016;23.098;2022-10-31T01:11:16;7.47;;;3.00;;
7336;SDS011;54510;42.016;23.098;2022-10-31T01:13:44;7.55;;;2.88;;
7336;SDS011;54510;42.016;23.098;2022-10-31T01:16:12;7.57;;;4.15;;
7336;SDS011;54510;42.016;23.098;2022-10-31T01:18:40;8.73;;;4.60;;
7336;SDS011;54510;42.016;23.098;2022-10-31T01:21:07;10.10;;;4.43;;
7336;SDS011;54510;42.016;23.098;2022-10-31T01:23:34;8.43;;;5.05;;
7336;SDS011;54510;42.016;23.098;2022-10-31T01:26:04;12.63;;;5.80;;
7336;SDS011;54510;42.016;23.098;2022-10-31T01:28:30;13.73;;;6.82;;
7336;SDS011;54510;42.016;23.098;2022-10-31T01:30:59;15.00;;;6.22;;
7336;SDS011;54510;42.016;23.098;2022-10-31T01:33:25;11.18;;;5.47;;
7336;SDS011;54510;42.016;23.098;2022-10-31T01:35:50;9.65;;;6.07;;
7336;SDS011;54510;42.016;23.098;2022-10-31T01:38:16;11.93;;;6.18;;
7336;SDS011;54510;42.016;23.098;2022-10-31T01:40:41;8.07;;;4.55;;
7336;SDS011;54510;42.016;23.098;2022-10-31T01:43:09;7.05;;;4.10;;
7336;SDS011;54510;42.016;23.098;2022-10-31T01:45:38;9.02;;;4.25;;
7336;SDS011;54510;42.016;23.098;2022-10-31T01:48:03;8.75;;;5.10;;
7336;SDS011;54510;42.016;23.098;2022-10-31T01:50:32;11.73;;;5.68;;
7336;SDS011;54510;42.016;23.098;2022-10-31T01:53:01;8.73;;;5.03;;
7336;SDS011;54510;42.016;23.098;2022-10-31T01:55:32;9.40;;;5.78;;
7336;SDS011;54510;42.016;23.098;2022-10-31T01:58:10;8.82;;;5.13;;
7336;SDS011;54510;42.016;23.098;2022-10-31T02:00:38;7.47;;;5.38;;
7336;SDS011;54510;42.016;23.098;2022-10-31T02:03:06;11.05;;;5.68;;
7336;SDS011;54510;42.016;23.098;2022-10-31T02:05:31;12.00;;;5.13;;
7336;SDS011;54510;42.016;23.098;2022-10-31T02:10:32;8.52;;;5.43;;
7336;SDS011;54510;42.016;23.098;2022-10-31T02:13:01;11.52;;;5.25;;
7336;SDS011;54510;42.016;23.098;2022-10-31T02:15:29;9.65;;;4.55;;
7336;SDS011;54510;42.016;23.098;2022-10-31T02:17:55;9.90;;;4.72;;
7336;SDS011;54510;42.016;23.098;2022-10-31T02:20:21;9.02;;;4.97;;
7336;SDS011;54510;42.016;23.098;2022-10-31T02:30:52;9.13;;;5.68;;
7336;SDS011;54510;42.016;23.098;2022-10-31T02:38:51;14.15;;;6.65;;
7336;SDS011;54510;42.016;23.098;2022-10-31T02:41:35;12.73;;;6.15;;
7336;SDS011;54510;42.016;23.098;2022-10-31T02:44:15;19.48;;;6.90;;
7336;SDS011;54510;42.016;23.098;2022-10-31T02:46:49;10.68;;;5.60;;
7336;SDS011;54510;42.016;23.098;2022-10-31T02:49:24;10.40;;;5.30;;
7336;SDS011;54510;42.016;23.098;2022-10-31T02:51:52;8.35;;;5.18;;
7336;SDS011;54510;42.016;23.098;2022-10-31T02:54:18;8.50;;;5.20;;
7336;SDS011;54510;42.016;23.098;2022-10-31T02:56:46;9.23;;;6.22;;
7336;SDS011;54510;42.016;23.098;2022-10-31T02:59:14;14.65;;;6.13;;
7336;SDS011;54510;42.016;23.098;2022-10-31T03:04:48;10.93;;;6.15;;
7336;SDS011;54510;42.016;23.098;2022-10-31T03:16:25;8.57;;;5.13;;
7336;SDS011;54510;42.016;23.098;2022-10-31T03:19:03;15.43;;;4.97;;
7336;SDS011;54510;42.016;23.098;2022-10-31T03:21:40;8.63;;;4.88;;
7336;SDS011;54510;42.016;23.098;2022-10-31T03:24:31;7.00;;;4.05;;
7336;SDS011;54510;42.016;23.098;2022-10-31T03:26:59;8.27;;;4.35;;
7336;SDS011;54510;42.016;23.098;2022-10-31T03:29:28;8.50;;;4.45;;
7336;SDS011;54510;42.016;23.098;2022-10-31T03:32:00;8.38;;;4.85;;
7336;SDS011;54510;42.016;23.098;2022-10-31T03:34:30;7.35;;;4.95;;
7336;SDS011;54510;42.016;23.098;2022-10-31T03:36:57;5.28;;;3.90;;
7336;SDS011;54510;42.016;23.098;2022-10-31T03:39:26;12.93;;;5.03;;
7336;SDS011;54510;42.016;23.098;2022-10-31T03:41:54;9.60;;;4.65;;
7336;SDS011;54510;42.016;23.098;2022-10-31T03:44:32;9.85;;;5.03;;
7336;SDS011;54510;42.016;23.098;2022-10-31T03:46:59;11.73;;;5.32;;
7336;SDS011;54510;42.016;23.098;2022-10-31T03:49:27;12.20;;;5.18;;
7336;SDS011;54510;42.016;23.098;2022-10-31T03:54:46;9.68;;;5.18;;
7336;SDS011;54510;42.016;23.098;2022-10-31T03:57:24;7.07;;;4.75;;
7336;SDS011;54510;42.016;23.098;2022-10-31T04:00:03;12.23;;;4.68;;
7336;SDS011;54510;42.016;23.098;2022-10-31T04:02:31;7.05;;;4.15;;
7336;SDS011;54510;42.016;23.098;2022-10-31T04:04:59;9.57;;;4.97;;
7336;SDS011;54510;42.016;23.098;2022-10-31T04:07:27;6.07;;;4.45;;
7336;SDS011;54510;42.016;23.098;2022-10-31T04:09:56;7.50;;;4.50;;
7336;SDS011;54510;42.016;23.098;2022-10-31T04:12:23;9.50;;;4.53;;
7336;SDS011;54510;42.016;23.098;2022-10-31T04:14:50;11.30;;;4.38;;
7336;SDS011;54510;42.016;23.098;2022-10-31T04:17:18;10.55;;;4.78;;
7336;SDS011;54510;42.016;23.098;2022-10-31T04:19:47;8.43;;;4.68;;
7336;SDS011;54510;42.016;23.098;2022-10-31T04:22:12;14.02;;;5.80;;
7336;SDS011;54510;42.016;23.098;2022-10-31T04:24:39;10.73;;;4.97;;
7336;SDS011;54510;42.016;23.098;2022-10-31T04:27:05;9.25;;;4.38;;
7336;SDS011;54510;42.016;23.098;2022-10-31T04:29:31;9.63;;;5.40;;
7336;SDS011;54510;42.016;23.098;2022-10-31T04:31:56;10.10;;;4.78;;
7336;SDS011;54510;42.016;23.098;2022-10-31T04:34:22;13.60;;;6.78;;
7336;SDS011;54510;42.016;23.098;2022-10-31T04:36:47;9.63;;;5.20;;
7336;SDS011;54510;42.016;23.098;2022-10-31T04:39:13;10.73;;;4.82;;
7336;SDS011;54510;42.016;23.098;2022-10-31T04:41:38;8.88;;;4.25;;
7336;SDS011;54510;42.016;23.098;2022-10-31T04:44:04;9.38;;;4.55;;
7336;SDS011;54510;42.016;23.098;2022-10-31T04:46:29;7.65;;;4.50;;
7336;SDS011;54510;42.016;23.098;2022-10-31T04:48:55;14.02;;;5.32;;
7336;SDS011;54510;42.016;23.098;2022-10-31T04:51:20;7.53;;;4.65;;
7336;SDS011;54510;42.016;23.098;2022-10-31T04:53:45;8.70;;;5.38;;
7336;SDS011;54510;42.016;23.098;2022-10-31T04:56:11;9.50;;;5.72;;
7336;SDS011;54510;42.016;23.098;2022-10-31T04:58:36;8.20;;;4.60;;
7336;SDS011;54510;42.016;23.098;2022-10-31T05:01:01;12.32;;;5.43;;
7336;SDS011;54510;42.016;23.098;2022-10-31T05:03:27;11.82;;;6.15;;
7336;SDS011;54510;42.016;23.098;2022-10-31T05:05:52;10.15;;;5.70;;
7336;SDS011;54510;42.016;23.098;2022-10-31T05:08:18;12.20;;;4.80;;
7336;SDS011;54510;42.016;23.098;2022-10-31T05:10:43;8.40;;;5.07;;
7336;SDS011;54510;42.016;23.098;2022-10-31T05:13:08;9.27;;;4.40;;
7336;SDS011;54510;42.016;23.098;2022-10-31T05:15:34;9.13;;;5.40;;
7336;SDS011;54510;42.016;23.098;2022-10-31T05:17:59;11.38;;;4.95;;
7336;SDS011;54510;42.016;23.098;2022-10-31T05:20:26;11.27;;;5.03;;
7336;SDS011;54510;42.016;23.098;2022-10-31T05:22:54;17.38;;;5.93;;
7336;SDS011;54510;42.016;23.098;2022-10-31T05:25:22;32.10;;;5.65;;
7336;SDS011;54510;42.016;23.098;2022-10-31T05:27:49;16.83;;;5.88;;
7336;SDS011;54510;42.016;23.098;2022-10-31T05:30:19;15.63;;;6.68;;
7336;SDS011;54510;42.016;23.098;2022-10-31T05:32:47;13.23;;;5.85;;
7336;SDS011;54510;42.016;23.098;2022-10-31T05:35:15;16.42;;;9.45;;
7336;SDS011;54510;42.016;23.098;2022-10-31T05:37:43;32.97;;;8.38;;
7336;SDS011;54510;42.016;23.098;2022-10-31T05:40:11;18.75;;;5.90;;
7336;SDS011;54510;42.016;23.098;2022-10-31T05:42:40;16.63;;;7.05;;
7336;SDS011;54510;42.016;23.098;2022-10-31T05:45:10;30.63;;;7.30;;
7336;SDS011;54510;42.016;23.098;2022-10-31T05:47:38;25.92;;;6.00;;
7336;SDS011;54510;42.016;23.098;2022-10-31T05:50:03;14.75;;;6.45;;
7336;SDS011;54510;42.016;23.098;2022-10-31T05:52:30;23.95;;;6.65;;
7336;SDS011;54510;42.016;23.098;2022-10-31T05:54:55;14.85;;;7.20;;
7336;SDS011;54510;42.016;23.098;2022-10-31T05:57:21;24.17;;;9.38;;
7336;SDS011;54510;42.016;23.098;2022-10-31T05:59:46;30.30;;;15.70;;
7336;SDS011;54510;42.016;23.098;2022-10-31T06:02:11;24.60;;;13.23;;
7336;SDS011;54510;42.016;23.098;2022-10-31T06:04:37;26.77;;;14.60;;
7336;SDS011;54510;42.016;23.098;2022-10-31T06:07:02;21.52;;;13.13;;
7336;SDS011;54510;42.016;23.098;2022-10-31T06:09:28;24.88;;;13.05;;
7336;SDS011;54510;42.016;23.098;2022-10-31T06:11:53;23.77;;;12.15;;
7336;SDS011;54510;42.016;23.098;2022-10-31T06:14:18;23.80;;;12.60;;
7336;SDS011;54510;42.016;23.098;2022-10-31T06:16:44;28.17;;;12.65;;
7336;SDS011;54510;42.016;23.098;2022-10-31T06:19:09;19.23;;;12.60;;
7336;SDS011;54510;42.016;23.098;2022-10-31T06:21:35;22.77;;;13.18;;
7336;SDS011;54510;42.016;23.098;2022-10-31T06:24:00;27.55;;;12.60;;
7336;SDS011;54510;42.016;23.098;2022-10-31T06:26:25;41.67;;;13.45;;
7336;SDS011;54510;42.016;23.098;2022-10-31T06:28:51;33.42;;;12.75;;
7336;SDS011;54510;42.016;23.098;2022-10-31T06:31:16;45.15;;;17.48;;
7336;SDS011;54510;42.016;23.098;2022-10-31T06:33:41;53.00;;;22.58;;
7336;SDS011;54510;42.016;23.098;2022-10-31T06:36:07;57.15;;;23.02;;
7336;SDS011;54510;42.016;23.098;2022-10-31T06:38:33;36.67;;;22.90;;
7336;SDS011;54510;42.016;23.098;2022-10-31T06:41:02;43.10;;;22.63;;
7336;SDS011;54510;42.016;23.098;2022-10-31T06:43:31;56.00;;;22.58;;
7336;SDS011;54510;42.016;23.098;2022-10-31T06:45:57;36.33;;;20.08;;
7336;SDS011;54510;42.016;23.098;2022-10-31T06:48:22;52.00;;;20.90;;
7336;SDS011;54510;42.016;23.098;2022-10-31T06:50:48;44.30;;;19.10;;
7336;SDS011;54510;42.016;23.098;2022-10-31T06:53:13;36.60;;;16.73;;
7336;SDS011;54510;42.016;23.098;2022-10-31T06:55:39;38.08;;;15.60;;
7336;SDS011;54510;42.016;23.098;2022-10-31T06:58:05;24.35;;;14.45;;
7336;SDS011;54510;42.016;23.098;2022-10-31T07:00:30;19.48;;;12.50;;
7336;SDS011;54510;42.016;23.098;2022-10-31T07:02:57;26.80;;;12.30;;
7336;SDS011;54510;42.016;23.098;2022-10-31T07:05:27;25.10;;;12.25;;
7336;SDS011;54510;42.016;23.098;2022-10-31T07:07:57;23.98;;;11.27;;
7336;SDS011;54510;42.016;23.098;2022-10-31T07:10:25;20.15;;;11.30;;
7336;SDS011;54510;42.016;23.098;2022-10-31T07:12:55;22.45;;;8.75;;
7336;SDS011;54510;42.016;23.098;2022-10-31T07:15:21;12.80;;;8.88;;
7336;SDS011;54510;42.016;23.098;2022-10-31T07:17:47;16.73;;;9.57;;
7336;SDS011;54510;42.016;23.098;2022-10-31T07:20:13;17.83;;;8.15;;
7336;SDS011;54510;42.016;23.098;2022-10-31T07:22:38;21.58;;;13.10;;
7336;SDS011;54510;42.016;23.098;2022-10-31T07:25:04;38.10;;;18.98;;
7336;SDS011;54510;42.016;23.098;2022-10-31T07:27:34;30.58;;;15.70;;
7336;SDS011;54510;42.016;23.098;2022-10-31T07:30:04;18.17;;;10.35;;
7336;SDS011;54510;42.016;23.098;2022-10-31T07:32:37;23.08;;;11.75;;
7336;SDS011;54510;42.016;23.098;2022-10-31T07:35:06;22.80;;;10.70;;
7336;SDS011;54510;42.016;23.098;2022-10-31T07:37:33;34.88;;;11.55;;
7336;SDS011;54510;42.016;23.098;2022-10-31T07:39:58;21.08;;;11.75;;
7336;SDS011;54510;42.016;23.098;2022-10-31T07:42:24;29.00;;;13.93;;
7336;SDS011;54510;42.016;23.098;2022-10-31T07:44:49;45.78;;;15.63;;
7336;SDS011;54510;42.016;23.098;2022-10-31T07:47:15;38.65;;;13.70;;
7336;SDS011;54510;42.016;23.098;2022-10-31T07:49:40;27.05;;;12.30;;
7336;SDS011;54510;42.016;23.098;2022-10-31T07:52:05;25.70;;;11.82;;
7336;SDS011;54510;42.016;23.098;2022-10-31T07:54:31;24.00;;;11.52;;
7336;SDS011;54510;42.016;23.098;2022-10-31T07:56:56;38.10;;;13.85;;
7336;SDS011;54510;42.016;23.098;2022-10-31T07:59:21;29.17;;;12.88;;
7336;SDS011;54510;42.016;23.098;2022-10-31T08:01:47;39.33;;;13.43;;
7336;SDS011;54510;42.016;23.098;2022-10-31T08:04:12;20.17;;;12.07;;
7336;SDS011;54510;42.016;23.098;2022-10-31T08:06:38;31.00;;;19.60;;
7336;SDS011;54510;42.016;23.098;2022-10-31T08:09:03;34.35;;;15.98;;
7336;SDS011;54510;42.016;23.098;2022-10-31T08:11:29;30.00;;;12.77;;
7336;SDS011;54510;42.016;23.098;2022-10-31T08:13:54;25.50;;;10.52;;
7336;SDS011;54510;42.016;23.098;2022-10-31T08:16:19;21.35;;;10.20;;
7336;SDS011;54510;42.016;23.098;2022-10-31T08:18:45;22.92;;;9.73;;
7336;SDS011;54510;42.016;23.098;2022-10-31T08:21:10;22.65;;;10.20;;
7336;SDS011;54510;42.016;23.098;2022-10-31T08:23:35;21.60;;;10.32;;
7336;SDS011;54510;42.016;23.098;2022-10-31T08:26:01;20.90;;;10.82;;
7336;SDS011;54510;42.016;23.098;2022-10-31T08:28:26;20.88;;;11.07;;
7336;SDS011;54510;42.016;23.098;2022-10-31T08:30:52;23.45;;;10.70;;
7336;SDS011;54510;42.016;23.098;2022-10-31T08:33:17;20.33;;;10.48;;
7336;SDS011;54510;42.016;23.098;2022-10-31T08:35:43;26.02;;;11.13;;
7336;SDS011;54510;42.016;23.098;2022-10-31T08:38:10;26.63;;;9.43;;
7336;SDS011;54510;42.016;23.098;2022-10-31T08:40:36;15.85;;;9.50;;
7336;SDS011;54510;42.016;23.098;2022-10-31T08:43:04;25.23;;;9.00;;
7336;SDS011;54510;42.016;23.098;2022-10-31T08:45:37;17.80;;;10.43;;
7336;SDS011;54510;42.016;23.098;2022-10-31T08:48:03;24.55;;;10.05;;
7336;SDS011;54510;42.016;23.098;2022-10-31T08:50:32;28.58;;;11.82;;
7336;SDS011;54510;42.016;23.098;2022-10-31T08:55:36;30.13;;;8.25;;
7336;SDS011;54510;42.016;23.098;2022-10-31T08:58:03;17.33;;;6.75;;
7336;SDS011;54510;42.016;23.098;2022-10-31T09:00:31;22.73;;;7.95;;
7336;SDS011;54510;42.016;23.098;2022-10-31T09:03:01;18.02;;;8.07;;
7336;SDS011;54510;42.016;23.098;2022-10-31T09:05:28;24.40;;;8.50;;
7336;SDS011;54510;42.016;23.098;2022-10-31T09:07:55;28.88;;;8.73;;
7336;SDS011;54510;42.016;23.098;2022-10-31T09:10:22;21.80;;;7.47;;
7336;SDS011;54510;42.016;23.098;2022-10-31T09:12:53;19.35;;;7.25;;
7336;SDS011;54510;42.016;23.098;2022-10-31T09:15:23;15.27;;;5.93;;
7336;SDS011;54510;42.016;23.098;2022-10-31T09:17:49;20.63;;;7.10;;
7336;SDS011;54510;42.016;23.098;2022-10-31T09:20:15;27.88;;;12.55;;
7336;SDS011;54510;42.016;23.098;2022-10-31T09:22:40;21.33;;;9.27;;
7336;SDS011;54510;42.016;23.098;2022-10-31T09:25:07;12.52;;;6.30;;
7336;SDS011;54510;42.016;23.098;2022-10-31T09:27:34;22.08;;;6.43;;
7336;SDS011;54510;42.016;23.098;2022-10-31T09:29:59;17.67;;;6.40;;
7336;SDS011;54510;42.016;23.098;2022-10-31T09:32:24;24.17;;;7.65;;
7336;SDS011;54510;42.016;23.098;2022-10-31T09:34:50;27.50;;;12.68;;
7336;SDS011;54510;42.016;23.098;2022-10-31T09:37:15;21.73;;;9.50;;
7336;SDS011;54510;42.016;23.098;2022-10-31T09:39:41;17.38;;;4.63;;
7336;SDS011;54510;42.016;23.098;2022-10-31T09:45:15;16.92;;;6.88;;
7336;SDS011;54510;42.016;23.098;2022-10-31T09:55:47;12.65;;;4.28;;
7336;SDS011;54510;42.016;23.098;2022-10-31T09:58:23;10.27;;;4.43;;
7336;SDS011;54510;42.016;23.098;2022-10-31T10:00:51;9.43;;;4.13;;
7336;SDS011;54510;42.016;23.098;2022-10-31T10:03:26;9.73;;;4.45;;
7336;SDS011;54510;42.016;23.098;2022-10-31T10:08:30;7.13;;;3.78;;
7336;SDS011;54510;42.016;23.098;2022-10-31T10:21:31;10.07;;;4.18;;
7336;SDS011;54510;42.016;23.098;2022-10-31T10:26:35;17.90;;;4.97;;
7336;SDS011;54510;42.016;23.098;2022-10-31T10:29:16;16.10;;;8.68;;
7336;SDS011;54510;42.016;23.098;2022-10-31T10:31:42;24.63;;;15.52;;
7336;SDS011;54510;42.016;23.098;2022-10-31T10:34:23;12.35;;;4.90;;
7336;SDS011;54510;42.016;23.098;2022-10-31T10:36:58;12.70;;;4.95;;
7336;SDS011;54510;42.016;23.098;2022-10-31T10:41:59;9.55;;;4.40;;
7336;SDS011;54510;42.016;23.098;2022-10-31T10:44:45;7.18;;;4.18;;
7336;SDS011;54510;42.016;23.098;2022-10-31T10:47:36;12.50;;;4.72;;
7336;SDS011;54510;42.016;23.098;2022-10-31T10:50:15;12.50;;;4.03;;
7336;SDS011;54510;42.016;23.098;2022-10-31T10:55:36;12.07;;;4.13;;
7336;SDS011;54510;42.016;23.098;2022-10-31T10:58:17;9.40;;;3.00;;
7336;SDS011;54510;42.016;23.098;2022-10-31T11:00:44;13.68;;;4.45;;
7336;SDS011;54510;42.016;23.098;2022-10-31T11:03:11;9.23;;;3.83;;
7336;SDS011;54510;42.016;23.098;2022-10-31T11:05:52;11.38;;;5.13;;
7336;SDS011;54510;42.016;23.098;2022-10-31T11:08:33;15.30;;;4.88;;
7336;SDS011;54510;42.016;23.098;2022-10-31T11:11:01;10.32;;;4.32;;
7336;SDS011;54510;42.016;23.098;2022-10-31T11:13:30;9.10;;;4.18;;
7336;SDS011;54510;42.016;23.098;2022-10-31T11:16:04;9.02;;;4.78;;
7336;SDS011;54510;42.016;23.098;2022-10-31T11:18:54;16.60;;;3.83;;
7336;SDS011;54510;42.016;23.098;2022-10-31T11:21:21;8.15;;;4.00;;
7336;SDS011;54510;42.016;23.098;2022-10-31T11:26:29;9.88;;;3.85;;
7336;SDS011;54510;42.016;23.098;2022-10-31T11:28:58;14.35;;;3.50;;
7336;SDS011;54510;42.016;23.098;2022-10-31T11:31:24;10.45;;;4.32;;
7336;SDS011;54510;42.016;23.098;2022-10-31T11:34:02;13.32;;;4.63;;
7336;SDS011;54510;42.016;23.098;2022-10-31T11:36:31;9.43;;;4.03;;
7336;SDS011;54510;42.016;23.098;2022-10-31T11:38:59;8.63;;;2.92;;
7336;SDS011;54510;42.016;23.098;2022-10-31T11:41:29;9.10;;;2.85;;
7336;SDS011;54510;42.016;23.098;2022-10-31T11:43:59;10.25;;;4.20;;
7336;SDS011;54510;42.016;23.098;2022-10-31T11:49:11;8.90;;;2.47;;
7336;SDS011;54510;42.016;23.098;2022-10-31T11:51:41;9.57;;;1.92;;
7336;SDS011;54510;42.016;23.098;2022-10-31T11:54:16;9.23;;;2.47;;
7336;SDS011;54510;42.016;23.098;2022-10-31T11:56:46;13.07;;;2.40;;
7336;SDS011;54510;42.016;23.098;2022-10-31T11:59:18;16.38;;;2.42;;
7336;SDS011;54510;42.016;23.098;2022-10-31T12:01:49;9.93;;;2.30;;
7336;SDS011;54510;42.016;23.098;2022-10-31T12:04:16;9.90;;;2.55;;
7336;SDS011;54510;42.016;23.098;2022-10-31T12:06:43;16.20;;;3.00;;
7336;SDS011;54510;42.016;23.098;2022-10-31T12:11:53;6.68;;;1.60;;
7336;SDS011;54510;42.016;23.098;2022-10-31T12:20:16;13.43;;;2.85;;
7336;SDS011;54510;42.016;23.098;2022-10-31T12:28:06;4.97;;;1.85;;
7336;SDS011;54510;42.016;23.098;2022-10-31T12:47:55;7.22;;;2.20;;
7336;SDS011;54510;42.016;23.098;2022-10-31T12:50:47;8.38;;;1.67;;
7336;SDS011;54510;42.016;23.098;2022-10-31T12:53:24;5.20;;;1.75;;
7336;SDS011;54510;42.016;23.098;2022-10-31T12:58:40;6.55;;;1.88;;
7336;SDS011;54510;42.016;23.098;2022-10-31T13:01:29;19.17;;;2.42;;
7336;SDS011;54510;42.016;23.098;2022-10-31T13:06:57;5.57;;;2.00;;
7336;SDS011;54510;42.016;23.098;2022-10-31T13:09:37;6.35;;;1.60;;
7336;SDS011;54510;42.016;23.098;2022-10-31T13:12:11;5.72;;;1.85;;
7336;SDS011;54510;42.016;23.098;2022-10-31T13:17:38;14.35;;;2.13;;
7336;SDS011;54510;42.016;23.098;2022-10-31T13:25:52;5.72;;;1.98;;
7336;SDS011;54510;42.016;23.098;2022-10-31T13:28:25;8.43;;;1.60;;
7336;SDS011;54510;42.016;23.098;2022-10-31T13:31:00;10.77;;;2.17;;
7336;SDS011;54510;42.016;23.098;2022-10-31T13:33:32;9.63;;;1.70;;
7336;SDS011;54510;42.016;23.098;2022-10-31T13:36:14;12.50;;;2.40;;
7336;SDS011;54510;42.016;23.098;2022-10-31T13:38:53;5.63;;;1.73;;
7336;SDS011;54510;42.016;23.098;2022-10-31T13:41:31;4.95;;;1.45;;
7336;SDS011;54510;42.016;23.098;2022-10-31T13:44:09;6.15;;;1.60;;
7336;SDS011;54510;42.016;23.098;2022-10-31T13:46:36;5.32;;;1.42;;
7336;SDS011;54510;42.016;23.098;2022-10-31T13:49:04;6.63;;;2.20;;
7336;SDS011;54510;42.016;23.098;2022-10-31T13:51:47;12.60;;;2.17;;
7336;SDS011;54510;42.016;23.098;2022-10-31T13:54:21;3.58;;;1.42;;
7336;SDS011;54510;42.016;23.098;2022-10-31T13:56:59;7.55;;;1.50;;
7336;SDS011;54510;42.016;23.098;2022-10-31T13:59:26;4.82;;;1.58;;
7336;SDS011;54510;42.016;23.098;2022-10-31T14:01:55;6.85;;;1.45;;
7336;SDS011;54510;42.016;23.098;2022-10-31T14:06:57;9.88;;;2.08;;
7336;SDS011;54510;42.016;23.098;2022-10-31T14:12:30;6.93;;;1.98;;
7336;SDS011;54510;42.016;23.098;2022-10-31T14:15:21;8.02;;;1.92;;
7336;SDS011;54510;42.016;23.098;2022-10-31T14:22:40;8.00;;;1.60;;
7336;SDS011;54510;42.016;23.098;2022-10-31T14:25:26;7.28;;;1.42;;
7336;SDS011;54510;42.016;23.098;2022-10-31T14:27:51;4.78;;;1.40;;
7336;SDS011;54510;42.016;23.098;2022-10-31T14:30:19;7.43;;;1.88;;
7336;SDS011;54510;42.016;23.098;2022-10-31T14:32:58;2.38;;;1.23;;
7336;SDS011;54510;42.016;23.098;2022-10-31T14:35:29;5.22;;;2.10;;
7336;SDS011;54510;42.016;23.098;2022-10-31T14:43:28;5.82;;;1.52;;
7336;SDS011;54510;42.016;23.098;2022-10-31T14:46:35;3.47;;;1.30;;
7336;SDS011;54510;42.016;23.098;2022-10-31T14:51:36;7.28;;;1.85;;
7336;SDS011;54510;42.016;23.098;2022-10-31T14:54:06;5.60;;;1.70;;
7336;SDS011;54510;42.016;23.098;2022-10-31T14:56:40;2.50;;;1.42;;
7336;SDS011;54510;42.016;23.098;2022-10-31T14:59:14;3.85;;;1.67;;
7336;SDS011;54510;42.016;23.098;2022-10-31T15:01:50;4.80;;;1.70;;
7336;SDS011;54510;42.016;23.098;2022-10-31T15:04:37;6.93;;;2.13;;
7336;SDS011;54510;42.016;23.098;2022-10-31T15:07:20;5.10;;;1.42;;
7336;SDS011;54510;42.016;23.098;2022-10-31T15:09:55;6.30;;;1.67;;
7336;SDS011;54510;42.016;23.098;2022-10-31T15:12:32;3.78;;;1.70;;
7336;SDS011;54510;42.016;23.098;2022-10-31T15:18:03;7.35;;;2.45;;
7336;SDS011;54510;42.016;23.098;2022-10-31T15:20:30;8.52;;;1.88;;
7336;SDS011;54510;42.016;23.098;2022-10-31T15:23:02;7.72;;;2.15;;
7336;SDS011;54510;42.016;23.098;2022-10-31T15:25:28;8.40;;;1.77;;
7336;SDS011;54510;42.016;23.098;2022-10-31T15:27:58;8.20;;;2.22;;
7336;SDS011;54510;42.016;23.098;2022-10-31T15:30:26;5.70;;;1.90;;
7336;SDS011;54510;42.016;23.098;2022-10-31T15:32:53;6.82;;;1.90;;
7336;SDS011;54510;42.016;23.098;2022-10-31T15:37:52;12.10;;;2.60;;
7336;SDS011;54510;42.016;23.098;2022-10-31T15:40:18;6.72;;;2.45;;
7336;SDS011;54510;42.016;23.098;2022-10-31T15:42:59;6.38;;;2.47;;
7336;SDS011;54510;42.016;23.098;2022-10-31T15:45:27;9.88;;;2.08;;
7336;SDS011;54510;42.016;23.098;2022-10-31T15:47:59;9.32;;;2.10;;
7336;SDS011;54510;42.016;23.098;2022-10-31T15:50:39;7.53;;;2.33;;
7336;SDS011;54510;42.016;23.098;2022-10-31T15:53:16;5.50;;;1.73;;
7336;SDS011;54510;42.016;23.098;2022-10-31T15:55:51;6.40;;;2.13;;
7336;SDS011;54510;42.016;23.098;2022-10-31T15:58:19;5.65;;;1.80;;
7336;SDS011;54510;42.016;23.098;2022-10-31T16:00:45;8.75;;;2.50;;
7336;SDS011;54510;42.016;23.098;2022-10-31T16:03:27;7.80;;;2.42;;
7336;SDS011;54510;42.016;23.098;2022-10-31T16:05:58;6.47;;;3.40;;
7336;SDS011;54510;42.016;23.098;2022-10-31T16:10:56;5.30;;;2.00;;
7336;SDS011;54510;42.016;23.098;2022-10-31T16:13:35;5.43;;;2.17;;
7336;SDS011;54510;42.016;23.098;2022-10-31T16:18:36;7.32;;;2.70;;
7336;SDS011;54510;42.016;23.098;2022-10-31T16:21:05;7.45;;;2.53;;
7336;SDS011;54510;42.016;23.098;2022-10-31T16:23:33;9.23;;;2.28;;
7336;SDS011;54510;42.016;23.098;2022-10-31T16:25:59;11.95;;;2.95;;
7336;SDS011;54510;42.016;23.098;2022-10-31T16:28:25;8.80;;;2.53;;
7336;SDS011;54510;42.016;23.098;2022-10-31T16:30:53;7.45;;;2.38;;
7336;SDS011;54510;42.016;23.098;2022-10-31T16:35:45;6.13;;;1.90;;
7336;SDS011;54510;42.016;23.098;2022-10-31T16:38:11;6.28;;;2.28;;
7336;SDS011;54510;42.016;23.098;2022-10-31T16:40:37;9.77;;;3.83;;
7336;SDS011;54510;42.016;23.098;2022-10-31T16:43:03;10.30;;;3.92;;
7336;SDS011;54510;42.016;23.098;2022-10-31T16:45:29;5.57;;;3.00;;
7336;SDS011;54510;42.016;23.098;2022-10-31T16:48:04;10.02;;;2.72;;
7336;SDS011;54510;42.016;23.098;2022-10-31T16:50:31;6.25;;;2.80;;
7336;SDS011;54510;42.016;23.098;2022-10-31T16:52:57;8.10;;;2.92;;
7336;SDS011;54510;42.016;23.098;2022-10-31T16:55:23;8.68;;;3.90;;
7336;SDS011;54510;42.016;23.098;2022-10-31T16:57:50;11.10;;;3.13;;
7336;SDS011;54510;42.016;23.098;2022-10-31T17:00:23;9.90;;;3.53;;
7336;SDS011;54510;42.016;23.098;2022-10-31T17:02:51;14.77;;;5.00;;
7336;SDS011;54510;42.016;23.098;2022-10-31T17:05:19;9.90;;;3.83;;
7336;SDS011;54510;42.016;23.098;2022-10-31T17:07:45;9.27;;;3.70;;
7336;SDS011;54510;42.016;23.098;2022-10-31T17:10:12;10.15;;;3.53;;
7336;SDS011;54510;42.016;23.098;2022-10-31T17:12:39;7.78;;;2.83;;
7336;SDS011;54510;42.016;23.098;2022-10-31T17:15:18;8.02;;;2.53;;
7336;SDS011;54510;42.016;23.098;2022-10-31T17:17:48;7.82;;;2.33;;